sensor_id;sensor_type;location;lat;lon;timestamp;pressure;altitude;pressure_sealevel;temperature;humidity
9460;BME280;4768;42.664;23.240;2022-10-16T00:01:24;-9593.53;;;6.44;100.00
9460;BME280;4768;42.664;23.240;2022-10-16T00:03:51;-9591.53;;;6.37;100.00
9460;BME280;4768;42.664;23.240;2022-10-16T00:06:19;-9591.25;;;6.36;100.00
9460;BME280;4768;42.664;23.240;2022-10-16T00:08:47;-9594.94;;;6.49;100.00
9460;BME280;4768;42.664;23.240;2022-10-16T00:11:16;-9597.47;;;6.58;100.00
9460;BME280;4768;42.664;23.240;2022-10-16T00:13:46;-9597.78;;;6.59;100.00
9460;BME280;4768;42.664;23.240;2022-10-16T00:16:14;-9598.06;;;6.60;100.00
9460;BME280;4768;42.664;23.240;2022-10-16T00:18:41;-9592.38;;;6.40;100.00
9460;BME280;4768;42.664;23.240;2022-10-16T00:21:10;-9587.16;;;6.22;100.00
9460;BME280;4768;42.664;23.240;2022-10-16T00:23:38;-9589.84;;;6.31;100.00
9460;BME280;4768;42.664;23.240;2022-10-16T00:26:07;-9591.41;;;6.36;100.00
9460;BME280;4768;42.664;23.240;2022-10-16T00:28:34;-9593.66;;;6.44;100.00
9460;BME280;4768;42.664;23.240;2022-10-16T00:31:05;-9594.38;;;6.47;100.00
9460;BME280;4768;42.664;23.240;2022-10-16T00:33:34;-9592.09;;;6.39;100.00
9460;BME280;4768;42.664;23.240;2022-10-16T00:36:01;-9592.81;;;6.41;100.00
9460;BME280;4768;42.664;23.240;2022-10-16T00:38:29;-9579.38;;;5.94;100.00
9460;BME280;4768;42.664;23.240;2022-10-16T00:40:56;-9584.59;;;6.13;100.00
9460;BME280;4768;42.664;23.240;2022-10-16T00:43:35;-9584.59;;;6.13;100.00
9460;BME280;4768;42.664;23.240;2022-10-16T00:46:09;-9584.88;;;6.14;100.00
9460;BME280;4768;42.664;23.240;2022-10-16T00:48:37;-9580.38;;;5.98;100.00
9460;BME280;4768;42.664;23.240;2022-10-16T00:51:04;-9582.47;;;6.05;100.00
9460;BME280;4768;42.664;23.240;2022-10-16T00:53:32;-9588.56;;;6.26;100.00
9460;BME280;4768;42.664;23.240;2022-10-16T00:55:59;-9588.00;;;6.24;100.00
9460;BME280;4768;42.664;23.240;2022-10-16T00:58:27;-9587.28;;;6.22;100.00
9460;BME280;4768;42.664;23.240;2022-10-16T01:00:54;-9586.44;;;6.19;100.00
9460;BME280;4768;42.664;23.240;2022-10-16T01:03:28;-9588.84;;;6.27;100.00
9460;BME280;4768;42.664;23.240;2022-10-16T01:06:06;-9589.97;;;6.31;100.00
9460;BME280;4768;42.664;23.240;2022-10-16T01:08:39;-9590.56;;;6.33;100.00
9460;BME280;4768;42.664;23.240;2022-10-16T01:11:17;-9588.44;;;6.26;100.00
9460;BME280;4768;42.664;23.240;2022-10-16T01:13:49;-9584.88;;;6.14;100.00
9460;BME280;4768;42.664;23.240;2022-10-16T01:16:28;-9584.47;;;6.12;100.00
9460;BME280;4768;42.664;23.240;2022-10-16T01:19:06;-9584.88;;;6.14;100.00
9460;BME280;4768;42.664;23.240;2022-10-16T01:21:39;-9586.31;;;6.19;100.00
9460;BME280;4768;42.664;23.240;2022-10-16T01:24:12;-9596.91;;;6.56;100.00
9460;BME280;4768;42.664;23.240;2022-10-16T01:27:00;-9594.09;;;6.46;100.00
9460;BME280;4768;42.664;23.240;2022-10-16T01:29:30;-9589.97;;;6.31;100.00
9460;BME280;4768;42.664;23.240;2022-10-16T01:32:05;-9585.88;;;6.17;100.00
9460;BME280;4768;42.664;23.240;2022-10-16T01:34:40;-9577.53;;;5.88;100.00
9460;BME280;4768;42.664;23.240;2022-10-16T01:37:14;-9577.97;;;5.89;100.00
9460;BME280;4768;42.664;23.240;2022-10-16T01:39:45;-9580.78;;;5.99;100.00
9460;BME280;4768;42.664;23.240;2022-10-16T01:42:17;-9589.00;;;6.28;100.00
9460;BME280;4768;42.664;23.240;2022-10-16T01:44:46;-9591.81;;;6.38;100.00
9460;BME280;4768;42.664;23.240;2022-10-16T01:47:14;-9588.28;;;6.25;100.00
9460;BME280;4768;42.664;23.240;2022-10-16T01:49:43;-9578.81;;;5.92;100.00
9460;BME280;4768;42.664;23.240;2022-10-16T01:52:13;-9577.13;;;5.86;100.00
9460;BME280;4768;42.664;23.240;2022-10-16T01:54:43;-14702.06;;;5.68;100.00
9460;BME280;4768;42.664;23.240;2022-10-16T01:57:14;-9572.44;;;5.70;100.00
9460;BME280;4768;42.664;23.240;2022-10-16T01:59:45;-14702.06;;;5.70;100.00
9460;BME280;4768;42.664;23.240;2022-10-16T02:02:14;-9575.56;;;5.81;100.00
9460;BME280;4768;42.664;23.240;2022-10-16T02:04:44;-9586.16;;;6.18;100.00
9460;BME280;4768;42.664;23.240;2022-10-16T02:07:12;-9589.56;;;6.30;100.00
9460;BME280;4768;42.664;23.240;2022-10-16T02:09:40;-9587.28;;;6.22;100.00
9460;BME280;4768;42.664;23.240;2022-10-16T02:12:10;-9584.31;;;6.12;100.00
9460;BME280;4768;42.664;23.240;2022-10-16T02:14:41;-9587.72;;;6.24;100.00
9460;BME280;4768;42.664;23.240;2022-10-16T02:17:13;-9588.16;;;6.25;100.00
9460;BME280;4768;42.664;23.240;2022-10-16T02:19:40;-9581.63;;;6.02;100.00
9460;BME280;4768;42.664;23.240;2022-10-16T02:22:10;-9582.34;;;6.05;100.00
9460;BME280;4768;42.664;23.240;2022-10-16T02:24:45;-9583.06;;;6.07;100.00
9460;BME280;4768;42.664;23.240;2022-10-16T02:27:19;-9580.78;;;5.99;100.00
9460;BME280;4768;42.664;23.240;2022-10-16T02:29:53;-9578.53;;;5.91;100.00
9460;BME280;4768;42.664;23.240;2022-10-16T02:32:28;-9576.13;;;5.83;100.00
9460;BME280;4768;42.664;23.240;2022-10-16T02:34:58;-9575.28;;;5.80;100.00
9460;BME280;4768;42.664;23.240;2022-10-16T02:37:26;-9573.84;;;5.75;100.00
9460;BME280;4768;42.664;23.240;2022-10-16T02:39:55;215517.34;;;5.75;100.00
9460;BME280;4768;42.664;23.240;2022-10-16T02:42:27;-9570.59;;;5.64;100.00
9460;BME280;4768;42.664;23.240;2022-10-16T02:44:56;-9571.31;;;5.66;100.00
9460;BME280;4768;42.664;23.240;2022-10-16T02:47:23;-9569.47;;;5.60;100.00
9460;BME280;4768;42.664;23.240;2022-10-16T02:49:51;-9568.19;;;5.55;100.00
9460;BME280;4768;42.664;23.240;2022-10-16T02:52:18;-9567.50;;;5.53;100.00
9460;BME280;4768;42.664;23.240;2022-10-16T02:54:44;-9574.41;;;5.77;100.00
9460;BME280;4768;42.664;23.240;2022-10-16T02:57:11;-9573.44;;;5.74;100.00
9460;BME280;4768;42.664;23.240;2022-10-16T02:59:38;-9570.16;;;5.62;100.00
9460;BME280;4768;42.664;23.240;2022-10-16T03:02:06;-9567.06;;;5.51;100.00
9460;BME280;4768;42.664;23.240;2022-10-16T03:04:33;-9564.78;;;5.43;100.00
9460;BME280;4768;42.664;23.240;2022-10-16T03:07:00;-9563.53;;;5.39;100.00
9460;BME280;4768;42.664;23.240;2022-10-16T03:09:27;-9560.28;;;5.28;100.00
9460;BME280;4768;42.664;23.240;2022-10-16T03:11:54;-9561.25;;;5.31;100.00
9460;BME280;4768;42.664;23.240;2022-10-16T03:14:21;-9560.41;;;5.28;100.00
9460;BME280;4768;42.664;23.240;2022-10-16T03:16:47;-9559.72;;;5.26;100.00
9460;BME280;4768;42.664;23.240;2022-10-16T03:19:17;-9561.13;;;5.30;100.00
9460;BME280;4768;42.664;23.240;2022-10-16T03:21:44;-9561.56;;;5.32;100.00
9460;BME280;4768;42.664;23.240;2022-10-16T03:24:11;-9559.84;;;5.26;100.00
9460;BME280;4768;42.664;23.240;2022-10-16T03:26:38;-9558.56;;;5.22;100.00
9460;BME280;4768;42.664;23.240;2022-10-16T03:29:05;-9558.28;;;5.21;100.00
9460;BME280;4768;42.664;23.240;2022-10-16T03:31:32;-9557.31;;;5.17;100.00
9460;BME280;4768;42.664;23.240;2022-10-16T03:33:59;-9556.19;;;5.13;100.00
9460;BME280;4768;42.664;23.240;2022-10-16T03:36:27;-9557.03;;;5.16;100.00
9460;BME280;4768;42.664;23.240;2022-10-16T03:38:53;-9556.59;;;5.15;100.00
9460;BME280;4768;42.664;23.240;2022-10-16T03:41:20;-9555.31;;;5.10;100.00
9460;BME280;4768;42.664;23.240;2022-10-16T03:43:47;-9550.81;;;4.94;100.00
9460;BME280;4768;42.664;23.240;2022-10-16T03:46:14;-9548.53;;;4.86;100.00
9460;BME280;4768;42.664;23.240;2022-10-16T03:48:41;-9551.22;;;4.96;100.00
9460;BME280;4768;42.664;23.240;2022-10-16T03:51:07;-9553.78;;;5.05;100.00
9460;BME280;4768;42.664;23.240;2022-10-16T03:53:35;-9554.63;;;5.08;100.00
9460;BME280;4768;42.664;23.240;2022-10-16T03:56:02;-9555.75;;;5.12;100.00
9460;BME280;4768;42.664;23.240;2022-10-16T03:58:29;-9557.03;;;5.16;100.00
9460;BME280;4768;42.664;23.240;2022-10-16T04:00:56;-9550.50;;;4.93;100.00
9460;BME280;4768;42.664;23.240;2022-10-16T04:03:22;-9552.06;;;4.99;100.00
9460;BME280;4768;42.664;23.240;2022-10-16T04:05:49;-9551.50;;;4.97;100.00
9460;BME280;4768;42.664;23.240;2022-10-16T04:08:16;-9551.66;;;4.97;100.00
9460;BME280;4768;42.664;23.240;2022-10-16T04:10:45;-9549.94;;;4.91;100.00
9460;BME280;4768;42.664;23.240;2022-10-16T04:13:12;-9549.66;;;4.90;100.00
9460;BME280;4768;42.664;23.240;2022-10-16T04:15:39;-9545.72;;;4.77;100.00
9460;BME280;4768;42.664;23.240;2022-10-16T04:18:05;-9546.41;;;4.79;100.00
9460;BME280;4768;42.664;23.240;2022-10-16T04:20:33;-9547.41;;;4.82;100.00
9460;BME280;4768;42.664;23.240;2022-10-16T04:23:00;-9547.53;;;4.83;100.00
9460;BME280;4768;42.664;23.240;2022-10-16T04:25:26;-9552.34;;;5.00;100.00
9460;BME280;4768;42.664;23.240;2022-10-16T04:27:55;-9559.28;;;5.24;100.00
9460;BME280;4768;42.664;23.240;2022-10-16T04:30:22;-9555.19;;;5.10;100.00
9460;BME280;4768;42.664;23.240;2022-10-16T04:32:50;-9550.66;;;4.94;100.00
9460;BME280;4768;42.664;23.240;2022-10-16T04:35:17;-9549.25;;;4.89;100.00
9460;BME280;4768;42.664;23.240;2022-10-16T04:37:44;-9549.53;;;4.90;100.00
9460;BME280;4768;42.664;23.240;2022-10-16T04:40:11;-9547.84;;;4.84;100.00
9460;BME280;4768;42.664;23.240;2022-10-16T04:42:38;-9548.97;;;4.88;100.00
9460;BME280;4768;42.664;23.240;2022-10-16T04:45:07;-9546.56;;;4.79;100.00
9460;BME280;4768;42.664;23.240;2022-10-16T04:47:34;-9547.41;;;4.82;100.00
9460;BME280;4768;42.664;23.240;2022-10-16T04:50:00;-9546.97;;;4.81;100.00
9460;BME280;4768;42.664;23.240;2022-10-16T04:52:27;-9547.13;;;4.81;100.00
9460;BME280;4768;42.664;23.240;2022-10-16T04:54:54;-9547.28;;;4.82;100.00
9460;BME280;4768;42.664;23.240;2022-10-16T04:57:25;-9546.69;;;4.80;100.00
9460;BME280;4768;42.664;23.240;2022-10-16T04:59:53;-9549.09;;;4.88;100.00
9460;BME280;4768;42.664;23.240;2022-10-16T05:02:21;-9550.25;;;4.92;100.00
9460;BME280;4768;42.664;23.240;2022-10-16T05:04:48;-9551.94;;;4.98;100.00
9460;BME280;4768;42.664;23.240;2022-10-16T05:07:14;-9550.81;;;4.94;100.00
9460;BME280;4768;42.664;23.240;2022-10-16T05:09:41;-9554.75;;;5.08;100.00
9460;BME280;4768;42.664;23.240;2022-10-16T05:12:08;-9556.59;;;5.15;100.00
9460;BME280;4768;42.664;23.240;2022-10-16T05:14:35;-9558.00;;;5.20;100.00
9460;BME280;4768;42.664;23.240;2022-10-16T05:17:02;-9562.13;;;5.34;100.00
9460;BME280;4768;42.664;23.240;2022-10-16T05:19:30;-9565.66;;;5.46;100.00
9460;BME280;4768;42.664;23.240;2022-10-16T05:21:57;-9567.91;;;5.54;100.00
9460;BME280;4768;42.664;23.240;2022-10-16T05:24:23;-9569.88;;;5.61;100.00
9460;BME280;4768;42.664;23.240;2022-10-16T05:26:50;-9572.56;;;5.71;100.00
9460;BME280;4768;42.664;23.240;2022-10-16T05:29:17;-9575.13;;;5.79;100.00
9460;BME280;4768;42.664;23.240;2022-10-16T05:31:44;-9578.53;;;5.91;100.00
9460;BME280;4768;42.664;23.240;2022-10-16T05:34:11;-9580.50;;;5.98;100.00
9460;BME280;4768;42.664;23.240;2022-10-16T05:36:39;-9584.47;;;6.12;100.00
9460;BME280;4768;42.664;23.240;2022-10-16T05:39:06;-9587.16;;;6.22;100.00
9460;BME280;4768;42.664;23.240;2022-10-16T05:41:32;-9591.25;;;6.36;100.00
9460;BME280;4768;42.664;23.240;2022-10-16T05:43:59;-9591.41;;;6.36;100.00
9460;BME280;4768;42.664;23.240;2022-10-16T05:46:26;-9594.81;;;6.48;100.00
9460;BME280;4768;42.664;23.240;2022-10-16T05:48:52;-9600.03;;;6.67;100.00
9460;BME280;4768;42.664;23.240;2022-10-16T05:51:19;-9600.88;;;6.70;100.00
9460;BME280;4768;42.664;23.240;2022-10-16T05:53:47;-9603.72;;;6.79;100.00
9460;BME280;4768;42.664;23.240;2022-10-16T05:56:14;-9604.69;;;6.83;100.00
9460;BME280;4768;42.664;23.240;2022-10-16T05:58:41;-9606.69;;;6.90;100.00
9460;BME280;4768;42.664;23.240;2022-10-16T06:01:11;-9607.53;;;6.93;100.00
9460;BME280;4768;42.664;23.240;2022-10-16T06:03:39;-9607.53;;;6.93;100.00
9460;BME280;4768;42.664;23.240;2022-10-16T06:06:10;-9613.91;;;7.15;100.00
9460;BME280;4768;42.664;23.240;2022-10-16T06:08:37;-9620.00;;;7.36;100.00
9460;BME280;4768;42.664;23.240;2022-10-16T06:11:07;-9620.00;;;7.36;100.00
9460;BME280;4768;42.664;23.240;2022-10-16T06:13:34;-9615.59;;;7.21;100.00
9460;BME280;4768;42.664;23.240;2022-10-16T06:16:02;-9616.03;;;7.22;100.00
9460;BME280;4768;42.664;23.240;2022-10-16T06:18:29;-9630.19;;;7.72;100.00
9460;BME280;4768;42.664;23.240;2022-10-16T06:20:56;-9641.25;;;8.11;100.00
9460;BME280;4768;42.664;23.240;2022-10-16T06:23:24;-9647.19;;;8.31;100.00
9460;BME280;4768;42.664;23.240;2022-10-16T06:25:51;-9662.78;;;8.86;100.00
9460;BME280;4768;42.664;23.240;2022-10-16T06:28:19;-9666.63;;;8.99;100.00
9460;BME280;4768;42.664;23.240;2022-10-16T06:30:46;-9669.88;;;9.11;100.00
9460;BME280;4768;42.664;23.240;2022-10-16T06:33:13;-9670.72;;;9.14;100.00
9460;BME280;4768;42.664;23.240;2022-10-16T06:35:39;-9654.44;;;8.57;100.00
9460;BME280;4768;42.664;23.240;2022-10-16T06:38:06;-9632.31;;;7.79;100.00
9460;BME280;4768;42.664;23.240;2022-10-16T06:40:33;-9636.72;;;7.95;100.00
9460;BME280;4768;42.664;23.240;2022-10-16T06:42:59;-9652.16;;;8.49;100.00
9460;BME280;4768;42.664;23.240;2022-10-16T06:45:28;-9657.81;;;8.68;100.00
9460;BME280;4768;42.664;23.240;2022-10-16T06:47:54;-9653.72;;;8.54;100.00
9460;BME280;4768;42.664;23.240;2022-10-16T06:50:21;-9666.06;;;8.97;100.00
9460;BME280;4768;42.664;23.240;2022-10-16T06:52:48;-9675.13;;;9.29;100.00
9460;BME280;4768;42.664;23.240;2022-10-16T06:55:14;-9656.97;;;8.66;100.00
9460;BME280;4768;42.664;23.240;2022-10-16T06:57:42;-9669.31;;;9.09;100.00
9460;BME280;4768;42.664;23.240;2022-10-16T07:00:09;-9678.81;;;9.42;100.00
9460;BME280;4768;42.664;23.240;2022-10-16T07:02:38;-9676.69;;;9.34;100.00
9460;BME280;4768;42.664;23.240;2022-10-16T07:05:05;-9681.66;;;9.52;100.00
9460;BME280;4768;42.664;23.240;2022-10-16T07:07:31;-9675.97;;;9.32;100.00
9460;BME280;4768;42.664;23.240;2022-10-16T07:09:58;-9683.78;;;9.59;100.00
9460;BME280;4768;42.664;23.240;2022-10-16T07:12:25;-9687.75;;;9.73;100.00
9460;BME280;4768;42.664;23.240;2022-10-16T07:14:52;-9689.72;;;9.80;100.00
9460;BME280;4768;42.664;23.240;2022-10-16T07:17:20;-9691.16;;;9.85;100.00
9460;BME280;4768;42.664;23.240;2022-10-16T07:19:48;-9693.28;;;9.92;100.00
9460;BME280;4768;42.664;23.240;2022-10-16T07:22:18;-9693.00;;;9.91;100.00
9460;BME280;4768;42.664;23.240;2022-10-16T07:24:44;-9696.13;;;10.02;100.00
9460;BME280;4768;42.664;23.240;2022-10-16T07:27:11;-9698.41;;;10.10;100.00
9460;BME280;4768;42.664;23.240;2022-10-16T07:29:38;-9700.53;;;10.17;100.00
9460;BME280;4768;42.664;23.240;2022-10-16T07:32:05;-9691.28;;;9.85;100.00
9460;BME280;4768;42.664;23.240;2022-10-16T07:34:32;-9700.66;;;10.18;100.00
9460;BME280;4768;42.664;23.240;2022-10-16T07:37:00;-9697.41;;;10.07;100.00
9460;BME280;4768;42.664;23.240;2022-10-16T07:39:27;-9703.94;;;10.29;100.00
9460;BME280;4768;42.664;23.240;2022-10-16T07:41:53;-9703.66;;;10.28;100.00
9460;BME280;4768;42.664;23.240;2022-10-16T07:44:20;-9706.34;;;10.38;100.00
9460;BME280;4768;42.664;23.240;2022-10-16T07:46:47;-9710.59;;;10.53;100.00
9460;BME280;4768;42.664;23.240;2022-10-16T07:49:13;-9717.69;;;10.77;100.00
9460;BME280;4768;42.664;23.240;2022-10-16T07:51:40;-9717.69;;;10.78;100.00
9460;BME280;4768;42.664;23.240;2022-10-16T07:54:09;-9704.06;;;10.30;100.00
9460;BME280;4768;42.664;23.240;2022-10-16T07:56:36;-9706.75;;;10.39;100.00
9460;BME280;4768;42.664;23.240;2022-10-16T07:59:03;-9722.38;;;10.94;100.00
9460;BME280;4768;42.664;23.240;2022-10-16T08:01:30;-9730.19;;;11.21;100.00
9460;BME280;4768;42.664;23.240;2022-10-16T08:03:56;-9729.47;;;11.18;100.00
9460;BME280;4768;42.664;23.240;2022-10-16T08:06:23;-9728.63;;;11.15;100.00
9460;BME280;4768;42.664;23.240;2022-10-16T08:08:50;-9727.06;;;11.10;100.00
9460;BME280;4768;42.664;23.240;2022-10-16T08:11:18;-9742.69;;;11.64;100.00
9460;BME280;4768;42.664;23.240;2022-10-16T08:13:45;-9738.72;;;11.51;100.00
9460;BME280;4768;42.664;23.240;2022-10-16T08:16:12;-9757.31;;;12.15;100.00
9460;BME280;4768;42.664;23.240;2022-10-16T08:18:40;-9757.31;;;-137.21;100.00
9460;BME280;4768;42.664;23.240;2022-10-16T08:21:12;-9751.78;;;11.96;100.00
9460;BME280;4768;42.664;23.240;2022-10-16T08:23:39;-9747.53;;;11.81;100.00
9460;BME280;4768;42.664;23.240;2022-10-16T08:26:07;-9755.19;;;12.08;100.00
9460;BME280;4768;42.664;23.240;2022-10-16T08:28:35;-9757.59;;;12.16;100.00
9460;BME280;4768;42.664;23.240;2022-10-16T08:31:08;-9751.06;;;11.94;100.00
9460;BME280;4768;42.664;23.240;2022-10-16T08:33:35;-9754.63;;;12.06;100.00
9460;BME280;4768;42.664;23.240;2022-10-16T08:36:03;-9759.47;;;12.23;100.00
9460;BME280;4768;42.664;23.240;2022-10-16T08:38:30;-9757.19;;;12.15;100.00
9460;BME280;4768;42.664;23.240;2022-10-16T08:41:07;-9761.16;;;12.29;100.00
9460;BME280;4768;42.664;23.240;2022-10-16T08:43:47;-9763.28;;;12.36;100.00
9460;BME280;4768;42.664;23.240;2022-10-16T08:46:35;-9753.19;;;12.01;100.00
9460;BME280;4768;42.664;23.240;2022-10-16T08:49:09;-9762.72;;;12.34;100.00
9460;BME280;4768;42.664;23.240;2022-10-16T08:51:38;-9766.97;;;12.49;100.00
9460;BME280;4768;42.664;23.240;2022-10-16T08:54:08;-9759.88;;;12.24;100.00
9460;BME280;4768;42.664;23.240;2022-10-16T08:56:41;-9759.59;;;12.23;100.00
9460;BME280;4768;42.664;23.240;2022-10-16T08:59:12;-9765.00;;;12.42;100.00
9460;BME280;4768;42.664;23.240;2022-10-16T09:01:41;-9779.34;;;12.92;100.00
9460;BME280;4768;42.664;23.240;2022-10-16T09:07:12;-9784.06;;;13.08;100.00
9460;BME280;4768;42.664;23.240;2022-10-16T09:09:54;-9788.31;;;13.23;100.00
9460;BME280;4768;42.664;23.240;2022-10-16T09:12:30;-9788.16;;;13.23;100.00
9460;BME280;4768;42.664;23.240;2022-10-16T09:15:10;-9795.56;;;13.49;100.00
9460;BME280;4768;42.664;23.240;2022-10-16T09:17:47;-9794.28;;;13.44;100.00
9460;BME280;4768;42.664;23.240;2022-10-16T09:20:23;-1208.81;;;13.52;100.00
9460;BME280;4768;42.664;23.240;2022-10-16T09:23:07;17066.47;;;13.45;100.00
9460;BME280;4768;42.664;23.240;2022-10-16T09:25:35;27462.78;;;13.68;100.00
9460;BME280;4768;42.664;23.240;2022-10-16T09:28:02;33715.91;;;13.73;100.00
9460;BME280;4768;42.664;23.240;2022-10-16T09:30:30;39281.31;;;13.70;100.00
9460;BME280;4768;42.664;23.240;2022-10-16T09:32:58;42798.03;;;14.28;100.00
9460;BME280;4768;42.664;23.240;2022-10-16T09:35:31;63084.66;;;14.16;100.00
9460;BME280;4768;42.664;23.240;2022-10-16T09:37:59;72563.50;;;14.07;100.00
9460;BME280;4768;42.664;23.240;2022-10-16T09:40:29;89143.22;;;14.09;100.00
9460;BME280;4768;42.664;23.240;2022-10-16T09:43:01;99081.63;;;14.26;100.00
9460;BME280;4768;42.664;23.240;2022-10-16T09:45:29;130096.09;;;14.36;100.00
9460;BME280;4768;42.664;23.240;2022-10-16T09:47:56;121589.53;;;14.75;100.00
9460;BME280;4768;42.664;23.240;2022-10-16T09:50:25;152746.56;;;14.49;100.00
9460;BME280;4768;42.664;23.240;2022-10-16T09:53:03;129739.25;;;14.37;100.00
9460;BME280;4768;42.664;23.240;2022-10-16T09:55:31;170749.13;;;14.30;100.00
9460;BME280;4768;42.664;23.240;2022-10-16T09:57:57;170757.13;;;14.33;100.00
9460;BME280;4768;42.664;23.240;2022-10-16T10:00:24;170781.19;;;14.42;100.00
9460;BME280;4768;42.664;23.240;2022-10-16T10:02:53;170956.22;;;15.07;100.00
9460;BME280;4768;42.664;23.240;2022-10-16T10:05:22;170861.41;;;14.72;100.00
9460;BME280;4768;42.664;23.240;2022-10-16T10:07:55;170817.25;;;14.55;100.00
9460;BME280;4768;42.664;23.240;2022-10-16T10:10:27;170811.94;;;14.53;100.00
9460;BME280;4768;42.664;23.240;2022-10-16T10:12:55;170813.25;;;14.54;100.00
9460;BME280;4768;42.664;23.240;2022-10-16T10:15:23;170778.53;;;14.41;100.00
9460;BME280;4768;42.664;23.240;2022-10-16T10:17:55;170844.00;;;14.65;100.00
9460;BME280;4768;42.664;23.240;2022-10-16T10:20:26;170779.88;;;14.42;100.00
9460;BME280;4768;42.664;23.240;2022-10-16T10:22:54;170886.75;;;14.81;100.00
9460;BME280;4768;42.664;23.240;2022-10-16T10:25:49;170873.41;;;14.76;100.00
9460;BME280;4768;42.664;23.240;2022-10-16T10:28:34;171009.78;;;15.27;100.00
9460;BME280;4768;42.664;23.240;2022-10-16T10:31:11;170976.28;;;15.14;100.00
9460;BME280;4768;42.664;23.240;2022-10-16T10:33:46;171039.16;;;15.38;100.00
9460;BME280;4768;42.664;23.240;2022-10-16T10:36:30;171004.44;;;15.25;100.00
9460;BME280;4768;42.664;23.240;2022-10-16T10:38:59;171003.09;;;15.24;100.00
9460;BME280;4768;42.664;23.240;2022-10-16T10:44:45;170987.03;;;15.18;100.00
9460;BME280;4768;42.664;23.240;2022-10-16T10:47:24;171019.13;;;15.30;100.00
9460;BME280;4768;42.664;23.240;2022-10-16T10:50:04;170999.06;;;15.23;100.00
9460;BME280;4768;42.664;23.240;2022-10-16T10:52:45;171016.47;;;15.29;100.00
9460;BME280;4768;42.664;23.240;2022-10-16T10:55:23;171076.63;;;15.51;100.00
9460;BME280;4768;42.664;23.240;2022-10-16T11:01:02;171075.25;;;15.51;100.00
9460;BME280;4768;42.664;23.240;2022-10-16T11:03:50;171127.41;;;15.70;100.00
9460;BME280;4768;42.664;23.240;2022-10-16T11:06:24;171214.31;;;16.02;100.00
9460;BME280;4768;42.664;23.240;2022-10-16T11:08:55;171254.44;;;16.17;100.00
9460;BME280;4768;42.664;23.240;2022-10-16T11:11:30;171259.81;;;16.19;100.00
9460;BME280;4768;42.664;23.240;2022-10-16T11:14:02;171198.28;;;15.96;100.00
9460;BME280;4768;42.664;23.240;2022-10-16T11:16:35;171188.94;;;15.93;100.00
9460;BME280;4768;42.664;23.240;2022-10-16T11:19:11;171146.13;;;15.77;100.00
9460;BME280;4768;42.664;23.240;2022-10-16T11:21:44;171140.81;;;15.75;100.00
9460;BME280;4768;42.664;23.240;2022-10-16T11:24:20;171152.84;;;15.80;100.00
9460;BME280;4768;42.664;23.240;2022-10-16T11:26:50;171192.94;;;15.95;100.00
9460;BME280;4768;42.664;23.240;2022-10-16T11:29:26;171164.88;;;15.84;100.00
9460;BME280;4768;42.664;23.240;2022-10-16T11:31:58;171219.72;;;16.04;100.00
9460;BME280;4768;42.664;23.240;2022-10-16T11:34:29;171239.75;;;16.12;100.00
9460;BME280;4768;42.664;23.240;2022-10-16T11:37:04;171250.44;;;16.16;100.00
9460;BME280;4768;42.664;23.240;2022-10-16T11:39:33;171164.88;;;15.84;100.00
9460;BME280;4768;42.664;23.240;2022-10-16T11:42:04;171227.72;;;16.07;100.00
9460;BME280;4768;42.664;23.240;2022-10-16T11:44:44;171194.28;;;15.95;100.00
9460;BME280;4768;42.664;23.240;2022-10-16T11:47:23;171215.69;;;16.03;100.00
9460;BME280;4768;42.664;23.240;2022-10-16T11:49:57;171203.66;;;15.98;100.00
9460;BME280;4768;42.664;23.240;2022-10-16T11:52:30;171306.66;;;16.37;100.00
9460;BME280;4768;42.664;23.240;2022-10-16T11:55:05;171336.13;;;16.47;100.00
9460;BME280;4768;42.664;23.240;2022-10-16T11:57:40;171246.41;;;16.14;100.00
9460;BME280;4768;42.664;23.240;2022-10-16T12:00:10;171304.00;;;16.36;100.00
9460;BME280;4768;42.664;23.240;2022-10-16T12:02:50;171230.38;;;16.08;100.00
9460;BME280;4768;42.664;23.240;2022-10-16T12:05:25;171235.75;;;16.10;100.00
9460;BME280;4768;42.664;23.240;2022-10-16T12:08:06;171297.31;;;16.33;100.00
9460;BME280;4768;42.664;23.240;2022-10-16T12:10:35;171253.13;;;16.17;100.00
9460;BME280;4768;42.664;23.240;2022-10-16T12:13:03;171255.81;;;16.18;100.00
9460;BME280;4768;42.664;23.240;2022-10-16T12:15:31;171364.19;;;16.58;100.00
9460;BME280;4768;42.664;23.240;2022-10-16T12:17:58;171356.19;;;16.55;100.00
9460;BME280;4768;42.664;23.240;2022-10-16T12:20:29;171349.47;;;16.52;100.00
9460;BME280;4768;42.664;23.240;2022-10-16T12:22:59;171346.81;;;16.51;100.00
9460;BME280;4768;42.664;23.240;2022-10-16T12:25:29;171388.28;;;16.67;100.00
9460;BME280;4768;42.664;23.240;2022-10-16T12:28:05;171361.50;;;16.57;100.00
9460;BME280;4768;42.664;23.240;2022-10-16T12:30:34;171312.03;;;16.39;100.00
9460;BME280;4768;42.664;23.240;2022-10-16T12:33:03;171293.28;;;16.32;100.00
9460;BME280;4768;42.664;23.240;2022-10-16T12:35:33;171306.66;;;16.37;100.00
9460;BME280;4768;42.664;23.240;2022-10-16T12:38:06;171326.72;;;16.44;100.00
9460;BME280;4768;42.664;23.240;2022-10-16T12:40:37;171388.28;;;16.67;100.00
9460;BME280;4768;42.664;23.240;2022-10-16T12:43:26;171401.66;;;16.72;100.00
9460;BME280;4768;42.664;23.240;2022-10-16T12:46:01;171370.91;;;16.60;100.00
9460;BME280;4768;42.664;23.240;2022-10-16T12:48:29;171372.22;;;16.61;100.00
9460;BME280;4768;42.664;23.240;2022-10-16T12:50:56;171373.56;;;16.61;100.00
9460;BME280;4768;42.664;23.240;2022-10-16T12:53:24;171350.84;;;16.53;100.00
9460;BME280;4768;42.664;23.240;2022-10-16T12:56:04;171329.41;;;16.45;100.00
9460;BME280;4768;42.664;23.240;2022-10-16T12:58:52;171353.47;;;16.54;100.00
9460;BME280;4768;42.664;23.240;2022-10-16T13:01:39;171386.97;;;16.66;100.00
9460;BME280;4768;42.664;23.240;2022-10-16T13:04:34;171376.25;;;16.62;100.00
9460;BME280;4768;42.664;23.240;2022-10-16T13:07:18;171376.25;;;-138.48;100.00
9460;BME280;4768;42.664;23.240;2022-10-16T13:09:58;171385.59;;;16.66;100.00
9460;BME280;4768;42.664;23.240;2022-10-16T13:12:48;171384.25;;;16.65;100.00
9460;BME280;4768;42.664;23.240;2022-10-16T13:15:35;171360.19;;;16.56;100.00
9460;BME280;4768;42.664;23.240;2022-10-16T13:18:12;171349.47;;;16.52;100.00
9460;BME280;4768;42.664;23.240;2022-10-16T13:20:52;171382.94;;;16.65;100.00
9460;BME280;4768;42.664;23.240;2022-10-16T13:23:27;171346.81;;;16.51;100.00
9460;BME280;4768;42.664;23.240;2022-10-16T13:26:05;171318.69;;;16.41;100.00
9460;BME280;4768;42.664;23.240;2022-10-16T13:28:37;171304.00;;;16.36;100.00